Terminal Aerodrome Forecast
Issued by NWS

Home | Current Version | Previous Version | Text Only | Print | Product List | Glossary On
Versions: 1 2 3 4 5 6 7 8 9 10 11 12 13 14 15 16 17 18
000
FTUS44 KTSA 190104 AAA
TAFFYV
TAF AMD
KFYV 190104Z 1901/1924 00000KT 3SM BR BKN005
      TEMPO 1908/1912 1/2SM FG OVC001
     FM191200 00000KT 1/2SM FG OVC001
     FM191500 16003KT 4SM BR OVC007
     FM191800 19007KT P6SM BKN015=

USA.gov is the U.S. government's official web portal to all federal, state and local government web resources and services.